sensor_id;sensor_type;location;lat;lon;timestamp;temperature;humidity
8947;DHT22;4508;48.790;9.028;2023-01-04T00:01:39;3.70;99.90
8947;DHT22;4508;48.790;9.028;2023-01-04T00:04:05;3.70;99.90
8947;DHT22;4508;48.790;9.028;2023-01-04T00:06:32;3.60;99.90
8947;DHT22;4508;48.790;9.028;2023-01-04T00:08:59;3.60;99.90
8947;DHT22;4508;48.790;9.028;2023-01-04T00:11:25;3.50;99.90
8947;DHT22;4508;48.790;9.028;2023-01-04T00:13:54;3.60;99.90
8947;DHT22;4508;48.790;9.028;2023-01-04T00:16:22;3.60;99.90
8947;DHT22;4508;48.790;9.028;2023-01-04T00:18:49;3.50;99.90
8947;DHT22;4508;48.790;9.028;2023-01-04T00:21:16;3.50;99.90
8947;DHT22;4508;48.790;9.028;2023-01-04T00:23:44;3.50;99.90
8947;DHT22;4508;48.790;9.028;2023-01-04T00:26:11;3.50;99.90
8947;DHT22;4508;48.790;9.028;2023-01-04T00:28:39;3.40;99.90
8947;DHT22;4508;48.790;9.028;2023-01-04T00:31:07;3.30;99.90
8947;DHT22;4508;48.790;9.028;2023-01-04T00:33:34;3.20;99.90
8947;DHT22;4508;48.790;9.028;2023-01-04T00:36:02;3.30;99.90
8947;DHT22;4508;48.790;9.028;2023-01-04T00:38:29;3.30;99.90
8947;DHT22;4508;48.790;9.028;2023-01-04T00:40:55;3.30;99.90
8947;DHT22;4508;48.790;9.028;2023-01-04T00:43:22;3.30;99.90
8947;DHT22;4508;48.790;9.028;2023-01-04T00:45:49;3.20;99.90
8947;DHT22;4508;48.790;9.028;2023-01-04T00:48:16;3.20;99.90
8947;DHT22;4508;48.790;9.028;2023-01-04T00:50:43;3.20;99.90
8947;DHT22;4508;48.790;9.028;2023-01-04T00:53:10;3.20;99.90
8947;DHT22;4508;48.790;9.028;2023-01-04T00:55:36;3.10;99.90
8947;DHT22;4508;48.790;9.028;2023-01-04T00:58:03;3.20;99.90
8947;DHT22;4508;48.790;9.028;2023-01-04T01:00:30;3.20;99.90
8947;DHT22;4508;48.790;9.028;2023-01-04T01:02:56;3.30;99.90
8947;DHT22;4508;48.790;9.028;2023-01-04T01:05:24;3.30;99.90
8947;DHT22;4508;48.790;9.028;2023-01-04T01:07:51;3.50;99.90
8947;DHT22;4508;48.790;9.028;2023-01-04T01:10:17;3.50;99.90
8947;DHT22;4508;48.790;9.028;2023-01-04T01:12:44;3.50;99.90
8947;DHT22;4508;48.790;9.028;2023-01-04T01:15:10;3.50;99.90
8947;DHT22;4508;48.790;9.028;2023-01-04T01:17:37;3.50;99.90
8947;DHT22;4508;48.790;9.028;2023-01-04T01:20:04;3.50;99.90
8947;DHT22;4508;48.790;9.028;2023-01-04T01:22:33;3.50;99.90
8947;DHT22;4508;48.790;9.028;2023-01-04T01:25:00;3.50;99.90
8947;DHT22;4508;48.790;9.028;2023-01-04T01:27:26;3.40;99.90
8947;DHT22;4508;48.790;9.028;2023-01-04T01:29:53;3.40;99.90
8947;DHT22;4508;48.790;9.028;2023-01-04T01:32:19;3.20;99.90
8947;DHT22;4508;48.790;9.028;2023-01-04T01:34:46;3.20;99.90
8947;DHT22;4508;48.790;9.028;2023-01-04T01:37:13;3.30;99.90
8947;DHT22;4508;48.790;9.028;2023-01-04T01:39:41;3.20;99.90
8947;DHT22;4508;48.790;9.028;2023-01-04T01:42:11;3.20;99.90
8947;DHT22;4508;48.790;9.028;2023-01-04T01:47:23;3.10;99.90
8947;DHT22;4508;48.790;9.028;2023-01-04T01:49:50;3.00;99.90
8947;DHT22;4508;48.790;9.028;2023-01-04T01:52:20;3.00;99.90
8947;DHT22;4508;48.790;9.028;2023-01-04T01:54:50;3.00;99.90
8947;DHT22;4508;48.790;9.028;2023-01-04T01:57:18;3.10;99.90
8947;DHT22;4508;48.790;9.028;2023-01-04T01:59:47;3.10;99.90
8947;DHT22;4508;48.790;9.028;2023-01-04T02:02:14;3.10;99.90
8947;DHT22;4508;48.790;9.028;2023-01-04T02:04:42;3.00;99.90
8947;DHT22;4508;48.790;9.028;2023-01-04T02:07:10;3.00;99.90
8947;DHT22;4508;48.790;9.028;2023-01-04T02:09:38;3.00;99.90
8947;DHT22;4508;48.790;9.028;2023-01-04T02:12:08;3.00;99.90
8947;DHT22;4508;48.790;9.028;2023-01-04T02:14:35;3.00;99.90
8947;DHT22;4508;48.790;9.028;2023-01-04T02:17:04;3.00;99.90
8947;DHT22;4508;48.790;9.028;2023-01-04T02:22:41;3.00;99.90
8947;DHT22;4508;48.790;9.028;2023-01-04T02:25:15;3.00;99.90
8947;DHT22;4508;48.790;9.028;2023-01-04T02:27:48;3.00;99.90
8947;DHT22;4508;48.790;9.028;2023-01-04T02:30:31;3.00;99.90
8947;DHT22;4508;48.790;9.028;2023-01-04T02:33:15;3.00;99.90
8947;DHT22;4508;48.790;9.028;2023-01-04T02:35:46;3.10;99.90
8947;DHT22;4508;48.790;9.028;2023-01-04T02:38:21;3.00;99.90
8947;DHT22;4508;48.790;9.028;2023-01-04T02:40:50;3.10;99.90
8947;DHT22;4508;48.790;9.028;2023-01-04T02:43:22;3.10;99.90
8947;DHT22;4508;48.790;9.028;2023-01-04T02:46:12;3.10;99.90
8947;DHT22;4508;48.790;9.028;2023-01-04T02:48:41;3.10;99.90
8947;DHT22;4508;48.790;9.028;2023-01-04T02:51:26;3.20;99.90
8947;DHT22;4508;48.790;9.028;2023-01-04T02:53:52;3.20;99.90
8947;DHT22;4508;48.790;9.028;2023-01-04T02:56:20;3.20;99.90
8947;DHT22;4508;48.790;9.028;2023-01-04T02:59:03;3.30;99.90
8947;DHT22;4508;48.790;9.028;2023-01-04T03:01:34;3.20;99.90
8947;DHT22;4508;48.790;9.028;2023-01-04T03:04:29;3.20;99.90
8947;DHT22;4508;48.790;9.028;2023-01-04T03:07:17;3.20;99.90
8947;DHT22;4508;48.790;9.028;2023-01-04T03:09:47;3.20;99.90
8947;DHT22;4508;48.790;9.028;2023-01-04T03:12:17;3.30;99.90
8947;DHT22;4508;48.790;9.028;2023-01-04T03:14:57;3.20;99.90
8947;DHT22;4508;48.790;9.028;2023-01-04T03:17:26;3.30;99.90
8947;DHT22;4508;48.790;9.028;2023-01-04T03:19:58;3.20;99.90
8947;DHT22;4508;48.790;9.028;2023-01-04T03:22:28;3.30;99.90
8947;DHT22;4508;48.790;9.028;2023-01-04T03:25:12;3.40;99.90
8947;DHT22;4508;48.790;9.028;2023-01-04T03:27:59;3.30;99.90
8947;DHT22;4508;48.790;9.028;2023-01-04T03:30:46;3.40;99.90
8947;DHT22;4508;48.790;9.028;2023-01-04T03:33:33;3.40;99.90
8947;DHT22;4508;48.790;9.028;2023-01-04T03:36:21;3.40;99.90
8947;DHT22;4508;48.790;9.028;2023-01-04T03:38:51;3.50;99.90
8947;DHT22;4508;48.790;9.028;2023-01-04T03:41:41;3.50;99.90
8947;DHT22;4508;48.790;9.028;2023-01-04T03:44:28;3.50;99.90
8947;DHT22;4508;48.790;9.028;2023-01-04T03:47:15;3.60;99.90
8947;DHT22;4508;48.790;9.028;2023-01-04T03:50:01;3.70;99.90
8947;DHT22;4508;48.790;9.028;2023-01-04T03:52:31;3.70;99.90
8947;DHT22;4508;48.790;9.028;2023-01-04T03:54:58;3.80;99.90
8947;DHT22;4508;48.790;9.028;2023-01-04T03:57:26;3.90;99.90
8947;DHT22;4508;48.790;9.028;2023-01-04T03:59:54;4.00;99.90
8947;DHT22;4508;48.790;9.028;2023-01-04T04:02:22;4.10;99.90
8947;DHT22;4508;48.790;9.028;2023-01-04T04:04:49;4.00;99.90
8947;DHT22;4508;48.790;9.028;2023-01-04T04:07:34;4.00;99.90
8947;DHT22;4508;48.790;9.028;2023-01-04T04:10:18;4.10;99.90
8947;DHT22;4508;48.790;9.028;2023-01-04T04:12:45;4.10;99.90
8947;DHT22;4508;48.790;9.028;2023-01-04T04:15:13;4.10;99.90
8947;DHT22;4508;48.790;9.028;2023-01-04T04:17:39;4.10;99.90
8947;DHT22;4508;48.790;9.028;2023-01-04T04:20:06;4.10;99.90
8947;DHT22;4508;48.790;9.028;2023-01-04T04:22:34;4.10;99.90
8947;DHT22;4508;48.790;9.028;2023-01-04T04:25:01;4.10;99.90
8947;DHT22;4508;48.790;9.028;2023-01-04T04:27:27;4.20;99.90
8947;DHT22;4508;48.790;9.028;2023-01-04T04:29:54;4.20;99.90
8947;DHT22;4508;48.790;9.028;2023-01-04T04:32:21;4.10;99.90
8947;DHT22;4508;48.790;9.028;2023-01-04T04:34:47;4.10;99.90
8947;DHT22;4508;48.790;9.028;2023-01-04T04:37:14;4.20;99.90
8947;DHT22;4508;48.790;9.028;2023-01-04T04:39:42;4.10;99.90
8947;DHT22;4508;48.790;9.028;2023-01-04T04:42:08;4.20;99.90
8947;DHT22;4508;48.790;9.028;2023-01-04T04:44:34;4.20;99.90
8947;DHT22;4508;48.790;9.028;2023-01-04T04:47:00;4.20;99.90
8947;DHT22;4508;48.790;9.028;2023-01-04T04:49:27;4.30;99.90
8947;DHT22;4508;48.790;9.028;2023-01-04T04:51:54;4.30;99.90
8947;DHT22;4508;48.790;9.028;2023-01-04T04:54:20;4.40;99.90
8947;DHT22;4508;48.790;9.028;2023-01-04T04:56:48;4.40;99.90
8947;DHT22;4508;48.790;9.028;2023-01-04T04:59:15;4.40;99.90
8947;DHT22;4508;48.790;9.028;2023-01-04T05:01:42;4.50;99.90
8947;DHT22;4508;48.790;9.028;2023-01-04T05:04:08;4.50;99.90
8947;DHT22;4508;48.790;9.028;2023-01-04T05:06:40;4.60;99.90
8947;DHT22;4508;48.790;9.028;2023-01-04T05:09:07;4.60;99.90
8947;DHT22;4508;48.790;9.028;2023-01-04T05:11:33;4.60;99.90
8947;DHT22;4508;48.790;9.028;2023-01-04T05:14:19;4.60;99.90
8947;DHT22;4508;48.790;9.028;2023-01-04T05:16:45;4.70;99.90
8947;DHT22;4508;48.790;9.028;2023-01-04T05:19:12;4.70;99.90
8947;DHT22;4508;48.790;9.028;2023-01-04T05:21:38;4.80;99.90
8947;DHT22;4508;48.790;9.028;2023-01-04T05:24:05;4.80;99.90
8947;DHT22;4508;48.790;9.028;2023-01-04T05:26:31;4.90;99.90
8947;DHT22;4508;48.790;9.028;2023-01-04T05:28:58;4.90;99.90
8947;DHT22;4508;48.790;9.028;2023-01-04T05:31:26;4.90;99.90
8947;DHT22;4508;48.790;9.028;2023-01-04T05:33:52;4.90;99.90
8947;DHT22;4508;48.790;9.028;2023-01-04T05:36:18;5.00;99.90
8947;DHT22;4508;48.790;9.028;2023-01-04T05:38:45;4.90;99.90
8947;DHT22;4508;48.790;9.028;2023-01-04T05:41:11;5.00;99.90
8947;DHT22;4508;48.790;9.028;2023-01-04T05:43:52;5.10;99.90
8947;DHT22;4508;48.790;9.028;2023-01-04T05:46:18;5.10;99.90
8947;DHT22;4508;48.790;9.028;2023-01-04T05:48:46;5.00;99.90
8947;DHT22;4508;48.790;9.028;2023-01-04T05:51:13;5.00;99.90
8947;DHT22;4508;48.790;9.028;2023-01-04T05:53:39;5.10;99.90
8947;DHT22;4508;48.790;9.028;2023-01-04T05:56:06;5.00;99.90
8947;DHT22;4508;48.790;9.028;2023-01-04T05:58:32;5.10;99.90
8947;DHT22;4508;48.790;9.028;2023-01-04T06:00:59;5.10;99.90
8947;DHT22;4508;48.790;9.028;2023-01-04T06:03:25;5.00;99.90
8947;DHT22;4508;48.790;9.028;2023-01-04T06:05:53;5.00;99.90
8947;DHT22;4508;48.790;9.028;2023-01-04T06:08:20;5.10;99.90
8947;DHT22;4508;48.790;9.028;2023-01-04T06:10:50;5.10;99.90
8947;DHT22;4508;48.790;9.028;2023-01-04T06:13:17;5.10;99.90
8947;DHT22;4508;48.790;9.028;2023-01-04T06:15:44;5.10;99.90
8947;DHT22;4508;48.790;9.028;2023-01-04T06:18:11;5.10;99.90
8947;DHT22;4508;48.790;9.028;2023-01-04T06:20:37;5.10;99.90
8947;DHT22;4508;48.790;9.028;2023-01-04T06:23:05;5.10;99.90
8947;DHT22;4508;48.790;9.028;2023-01-04T06:25:33;5.10;99.90
8947;DHT22;4508;48.790;9.028;2023-01-04T06:27:59;5.10;99.90
8947;DHT22;4508;48.790;9.028;2023-01-04T06:30:26;5.10;99.90
8947;DHT22;4508;48.790;9.028;2023-01-04T06:32:53;5.10;99.90
8947;DHT22;4508;48.790;9.028;2023-01-04T06:35:19;5.20;99.90
8947;DHT22;4508;48.790;9.028;2023-01-04T06:37:46;5.20;99.90
8947;DHT22;4508;48.790;9.028;2023-01-04T06:40:14;5.10;99.90
8947;DHT22;4508;48.790;9.028;2023-01-04T06:42:41;5.20;99.90
8947;DHT22;4508;48.790;9.028;2023-01-04T06:45:10;5.20;99.90
8947;DHT22;4508;48.790;9.028;2023-01-04T06:47:37;5.20;99.90
8947;DHT22;4508;48.790;9.028;2023-01-04T06:50:03;5.20;99.90
8947;DHT22;4508;48.790;9.028;2023-01-04T06:52:30;5.20;99.90
8947;DHT22;4508;48.790;9.028;2023-01-04T06:54:56;5.30;99.90
8947;DHT22;4508;48.790;9.028;2023-01-04T06:57:24;5.30;99.90
8947;DHT22;4508;48.790;9.028;2023-01-04T06:59:51;5.30;99.90
8947;DHT22;4508;48.790;9.028;2023-01-04T07:02:18;5.30;99.90
8947;DHT22;4508;48.790;9.028;2023-01-04T07:04:44;5.30;99.90
8947;DHT22;4508;48.790;9.028;2023-01-04T07:07:11;5.30;99.90
8947;DHT22;4508;48.790;9.028;2023-01-04T07:09:38;5.30;99.90
8947;DHT22;4508;48.790;9.028;2023-01-04T07:12:04;5.30;99.90
8947;DHT22;4508;48.790;9.028;2023-01-04T07:14:32;5.30;99.90
8947;DHT22;4508;48.790;9.028;2023-01-04T07:16:59;5.20;99.90
8947;DHT22;4508;48.790;9.028;2023-01-04T07:19:25;5.30;99.90
8947;DHT22;4508;48.790;9.028;2023-01-04T07:21:52;5.20;99.90
8947;DHT22;4508;48.790;9.028;2023-01-04T07:24:18;5.20;99.90
8947;DHT22;4508;48.790;9.028;2023-01-04T07:26:45;5.20;99.90
8947;DHT22;4508;48.790;9.028;2023-01-04T07:29:11;5.20;99.90
8947;DHT22;4508;48.790;9.028;2023-01-04T07:31:44;5.20;99.90
8947;DHT22;4508;48.790;9.028;2023-01-04T07:34:11;5.20;99.90
8947;DHT22;4508;48.790;9.028;2023-01-04T07:36:37;5.20;99.90
8947;DHT22;4508;48.790;9.028;2023-01-04T07:39:05;5.10;99.90
8947;DHT22;4508;48.790;9.028;2023-01-04T07:41:32;5.10;99.90
8947;DHT22;4508;48.790;9.028;2023-01-04T07:43:58;5.00;99.90
8947;DHT22;4508;48.790;9.028;2023-01-04T07:46:25;4.90;99.90
8947;DHT22;4508;48.790;9.028;2023-01-04T07:48:53;4.90;99.90
8947;DHT22;4508;48.790;9.028;2023-01-04T07:51:20;4.90;99.90
8947;DHT22;4508;48.790;9.028;2023-01-04T07:53:46;4.90;99.90
8947;DHT22;4508;48.790;9.028;2023-01-04T07:56:13;4.90;99.90
8947;DHT22;4508;48.790;9.028;2023-01-04T07:58:39;4.90;99.90
8947;DHT22;4508;48.790;9.028;2023-01-04T08:01:06;4.90;99.90
8947;DHT22;4508;48.790;9.028;2023-01-04T08:03:33;4.90;99.90
8947;DHT22;4508;48.790;9.028;2023-01-04T08:06:02;4.90;99.90
8947;DHT22;4508;48.790;9.028;2023-01-04T08:08:29;4.90;99.90
8947;DHT22;4508;48.790;9.028;2023-01-04T08:10:59;5.00;99.90
8947;DHT22;4508;48.790;9.028;2023-01-04T08:13:25;5.00;99.90
8947;DHT22;4508;48.790;9.028;2023-01-04T08:15:52;5.00;99.90
8947;DHT22;4508;48.790;9.028;2023-01-04T08:18:19;5.00;99.90
8947;DHT22;4508;48.790;9.028;2023-01-04T08:20:46;4.90;99.90
8947;DHT22;4508;48.790;9.028;2023-01-04T08:23:14;4.90;99.90
8947;DHT22;4508;48.790;9.028;2023-01-04T08:25:40;5.00;99.90
8947;DHT22;4508;48.790;9.028;2023-01-04T08:28:07;5.00;99.90
8947;DHT22;4508;48.790;9.028;2023-01-04T08:30:33;5.00;99.90
8947;DHT22;4508;48.790;9.028;2023-01-04T08:33:00;5.10;99.90
8947;DHT22;4508;48.790;9.028;2023-01-04T08:35:27;5.00;99.90
8947;DHT22;4508;48.790;9.028;2023-01-04T08:37:53;5.10;99.90
8947;DHT22;4508;48.790;9.028;2023-01-04T08:40:21;5.10;99.90
8947;DHT22;4508;48.790;9.028;2023-01-04T08:42:48;5.20;99.90
8947;DHT22;4508;48.790;9.028;2023-01-04T08:45:14;5.20;99.90
8947;DHT22;4508;48.790;9.028;2023-01-04T08:47:41;5.20;99.90
8947;DHT22;4508;48.790;9.028;2023-01-04T08:50:07;5.20;99.90
8947;DHT22;4508;48.790;9.028;2023-01-04T08:52:34;5.20;99.90
8947;DHT22;4508;48.790;9.028;2023-01-04T08:55:00;5.30;99.90
8947;DHT22;4508;48.790;9.028;2023-01-04T08:57:28;5.30;99.90
8947;DHT22;4508;48.790;9.028;2023-01-04T08:59:55;5.30;99.90
8947;DHT22;4508;48.790;9.028;2023-01-04T09:02:22;5.30;99.90
8947;DHT22;4508;48.790;9.028;2023-01-04T09:04:49;5.30;99.90
8947;DHT22;4508;48.790;9.028;2023-01-04T09:07:16;5.30;99.90
8947;DHT22;4508;48.790;9.028;2023-01-04T09:09:42;5.30;99.90
8947;DHT22;4508;48.790;9.028;2023-01-04T09:12:09;5.40;99.90
8947;DHT22;4508;48.790;9.028;2023-01-04T09:14:37;5.40;99.90
8947;DHT22;4508;48.790;9.028;2023-01-04T09:17:04;5.40;99.90
8947;DHT22;4508;48.790;9.028;2023-01-04T09:19:30;5.50;99.90
8947;DHT22;4508;48.790;9.028;2023-01-04T09:21:57;5.50;99.90
8947;DHT22;4508;48.790;9.028;2023-01-04T09:24:24;5.60;99.90
8947;DHT22;4508;48.790;9.028;2023-01-04T09:26:50;5.60;99.90
8947;DHT22;4508;48.790;9.028;2023-01-04T09:29:17;5.70;99.90
8947;DHT22;4508;48.790;9.028;2023-01-04T09:31:45;5.70;99.90
8947;DHT22;4508;48.790;9.028;2023-01-04T09:34:11;5.70;99.90
8947;DHT22;4508;48.790;9.028;2023-01-04T09:36:38;5.80;99.90
8947;DHT22;4508;48.790;9.028;2023-01-04T09:39:05;5.80;99.90
8947;DHT22;4508;48.790;9.028;2023-01-04T09:41:33;5.80;99.90
8947;DHT22;4508;48.790;9.028;2023-01-04T09:44:02;5.80;99.90
8947;DHT22;4508;48.790;9.028;2023-01-04T09:46:31;5.80;99.90
8947;DHT22;4508;48.790;9.028;2023-01-04T09:49:04;5.90;99.90
8947;DHT22;4508;48.790;9.028;2023-01-04T09:51:36;4.80;99.90
8947;DHT22;4508;48.790;9.028;2023-01-04T09:54:06;6.00;99.90
8947;DHT22;4508;48.790;9.028;2023-01-04T09:56:36;6.00;99.90
8947;DHT22;4508;48.790;9.028;2023-01-04T09:59:04;6.00;99.90
8947;DHT22;4508;48.790;9.028;2023-01-04T10:01:35;5.90;99.90
8947;DHT22;4508;48.790;9.028;2023-01-04T10:04:06;6.00;99.90
8947;DHT22;4508;48.790;9.028;2023-01-04T10:06:37;6.00;99.90
8947;DHT22;4508;48.790;9.028;2023-01-04T10:09:05;6.00;99.90
8947;DHT22;4508;48.790;9.028;2023-01-04T10:11:38;6.00;99.90
8947;DHT22;4508;48.790;9.028;2023-01-04T10:14:11;6.10;99.90
8947;DHT22;4508;48.790;9.028;2023-01-04T10:16:43;6.10;99.90
8947;DHT22;4508;48.790;9.028;2023-01-04T10:19:19;6.10;99.90
8947;DHT22;4508;48.790;9.028;2023-01-04T10:21:50;6.20;99.90
8947;DHT22;4508;48.790;9.028;2023-01-04T10:24:24;6.20;99.90
8947;DHT22;4508;48.790;9.028;2023-01-04T10:26:57;6.20;99.90
8947;DHT22;4508;48.790;9.028;2023-01-04T10:29:29;6.30;99.90
8947;DHT22;4508;48.790;9.028;2023-01-04T10:31:59;6.30;99.90
8947;DHT22;4508;48.790;9.028;2023-01-04T10:34:29;6.40;99.90
8947;DHT22;4508;48.790;9.028;2023-01-04T10:36:57;6.50;99.90
8947;DHT22;4508;48.790;9.028;2023-01-04T10:39:26;6.60;99.90
8947;DHT22;4508;48.790;9.028;2023-01-04T10:41:54;6.60;99.90
8947;DHT22;4508;48.790;9.028;2023-01-04T10:44:22;6.70;99.90
8947;DHT22;4508;48.790;9.028;2023-01-04T10:46:52;6.80;99.90
8947;DHT22;4508;48.790;9.028;2023-01-04T10:49:22;6.90;99.90
8947;DHT22;4508;48.790;9.028;2023-01-04T10:51:55;6.90;99.90
8947;DHT22;4508;48.790;9.028;2023-01-04T10:54:24;7.00;99.90
8947;DHT22;4508;48.790;9.028;2023-01-04T10:56:53;7.10;99.90
8947;DHT22;4508;48.790;9.028;2023-01-04T10:59:22;7.10;99.90
8947;DHT22;4508;48.790;9.028;2023-01-04T11:01:54;7.10;99.90
8947;DHT22;4508;48.790;9.028;2023-01-04T11:04:22;7.10;99.90
8947;DHT22;4508;48.790;9.028;2023-01-04T11:06:52;7.10;99.90
8947;DHT22;4508;48.790;9.028;2023-01-04T11:09:21;7.10;99.90
8947;DHT22;4508;48.790;9.028;2023-01-04T11:11:49;7.20;99.90
8947;DHT22;4508;48.790;9.028;2023-01-04T11:14:16;7.20;99.90
8947;DHT22;4508;48.790;9.028;2023-01-04T11:16:43;7.20;99.90
8947;DHT22;4508;48.790;9.028;2023-01-04T11:19:11;7.30;99.90
8947;DHT22;4508;48.790;9.028;2023-01-04T11:21:38;7.30;99.90
8947;DHT22;4508;48.790;9.028;2023-01-04T11:24:06;7.40;99.90
8947;DHT22;4508;48.790;9.028;2023-01-04T11:26:35;6.80;99.90
8947;DHT22;4508;48.790;9.028;2023-01-04T11:29:04;7.40;99.90
8947;DHT22;4508;48.790;9.028;2023-01-04T11:31:34;7.40;99.90
8947;DHT22;4508;48.790;9.028;2023-01-04T11:34:06;7.40;99.90
8947;DHT22;4508;48.790;9.028;2023-01-04T11:36:37;7.50;99.90
8947;DHT22;4508;48.790;9.028;2023-01-04T11:39:04;7.50;99.90
8947;DHT22;4508;48.790;9.028;2023-01-04T11:41:31;7.50;99.90
8947;DHT22;4508;48.790;9.028;2023-01-04T11:43:59;7.50;99.90
8947;DHT22;4508;48.790;9.028;2023-01-04T11:46:27;7.50;99.90
8947;DHT22;4508;48.790;9.028;2023-01-04T11:48:54;7.60;99.90
8947;DHT22;4508;48.790;9.028;2023-01-04T11:51:34;7.50;99.90
8947;DHT22;4508;48.790;9.028;2023-01-04T11:54:04;7.20;99.90
8947;DHT22;4508;48.790;9.028;2023-01-04T11:56:32;7.60;99.90
8947;DHT22;4508;48.790;9.028;2023-01-04T11:59:11;7.60;99.90
8947;DHT22;4508;48.790;9.028;2023-01-04T12:01:38;7.10;99.90
8947;DHT22;4508;48.790;9.028;2023-01-04T12:04:08;7.70;99.90
8947;DHT22;4508;48.790;9.028;2023-01-04T12:06:37;8.00;99.90
8947;DHT22;4508;48.790;9.028;2023-01-04T12:09:04;7.70;99.90
8947;DHT22;4508;48.790;9.028;2023-01-04T12:11:32;7.60;99.90
8947;DHT22;4508;48.790;9.028;2023-01-04T12:13:59;8.00;99.90
8947;DHT22;4508;48.790;9.028;2023-01-04T12:16:39;7.20;99.90
8947;DHT22;4508;48.790;9.028;2023-01-04T12:19:08;7.40;99.90
8947;DHT22;4508;48.790;9.028;2023-01-04T12:21:38;7.80;99.90
8947;DHT22;4508;48.790;9.028;2023-01-04T12:24:06;8.40;99.90
8947;DHT22;4508;48.790;9.028;2023-01-04T12:26:38;8.20;99.90
8947;DHT22;4508;48.790;9.028;2023-01-04T12:31:52;7.90;99.90
8947;DHT22;4508;48.790;9.028;2023-01-04T12:37:04;7.70;99.90
8947;DHT22;4508;48.790;9.028;2023-01-04T12:39:36;8.60;99.90
8947;DHT22;4508;48.790;9.028;2023-01-04T12:42:15;8.30;99.90
8947;DHT22;4508;48.790;9.028;2023-01-04T12:45:02;8.30;99.90
8947;DHT22;4508;48.790;9.028;2023-01-04T12:47:39;8.60;99.90
8947;DHT22;4508;48.790;9.028;2023-01-04T12:50:23;8.40;99.90
8947;DHT22;4508;48.790;9.028;2023-01-04T12:52:52;8.30;99.90
8947;DHT22;4508;48.790;9.028;2023-01-04T12:55:26;8.60;99.90
8947;DHT22;4508;48.790;9.028;2023-01-04T13:01:20;8.70;99.90
8947;DHT22;4508;48.790;9.028;2023-01-04T13:03:52;8.40;99.90
8947;DHT22;4508;48.790;9.028;2023-01-04T13:06:20;8.40;99.90
8947;DHT22;4508;48.790;9.028;2023-01-04T13:08:47;8.20;99.90
8947;DHT22;4508;48.790;9.028;2023-01-04T13:11:18;8.90;99.90
8947;DHT22;4508;48.790;9.028;2023-01-04T13:13:51;8.80;99.90
8947;DHT22;4508;48.790;9.028;2023-01-04T13:16:22;9.00;99.90
8947;DHT22;4508;48.790;9.028;2023-01-04T13:18:53;9.20;99.90
8947;DHT22;4508;48.790;9.028;2023-01-04T13:21:23;9.20;99.90
8947;DHT22;4508;48.790;9.028;2023-01-04T13:23:51;9.10;99.90
8947;DHT22;4508;48.790;9.028;2023-01-04T13:26:25;8.70;99.90
8947;DHT22;4508;48.790;9.028;2023-01-04T13:29:03;9.10;99.90
8947;DHT22;4508;48.790;9.028;2023-01-04T13:31:30;9.10;99.90
8947;DHT22;4508;48.790;9.028;2023-01-04T13:33:58;8.60;99.90
8947;DHT22;4508;48.790;9.028;2023-01-04T13:36:24;9.10;99.90
8947;DHT22;4508;48.790;9.028;2023-01-04T13:38:51;9.00;99.90
8947;DHT22;4508;48.790;9.028;2023-01-04T13:41:18;9.60;99.90
8947;DHT22;4508;48.790;9.028;2023-01-04T13:43:54;9.10;99.90
8947;DHT22;4508;48.790;9.028;2023-01-04T13:46:21;9.10;99.90
8947;DHT22;4508;48.790;9.028;2023-01-04T13:48:50;9.20;99.90
8947;DHT22;4508;48.790;9.028;2023-01-04T13:51:23;9.20;99.90
8947;DHT22;4508;48.790;9.028;2023-01-04T13:53:51;9.20;99.90
8947;DHT22;4508;48.790;9.028;2023-01-04T13:56:18;9.20;99.90
8947;DHT22;4508;48.790;9.028;2023-01-04T13:58:45;9.20;99.90
8947;DHT22;4508;48.790;9.028;2023-01-04T14:01:13;9.20;99.90
8947;DHT22;4508;48.790;9.028;2023-01-04T14:03:40;9.20;99.90
8947;DHT22;4508;48.790;9.028;2023-01-04T14:06:12;9.20;99.90
8947;DHT22;4508;48.790;9.028;2023-01-04T14:08:43;9.20;99.90
8947;DHT22;4508;48.790;9.028;2023-01-04T14:11:13;9.20;99.90
8947;DHT22;4508;48.790;9.028;2023-01-04T14:14:01;9.20;99.90
8947;DHT22;4508;48.790;9.028;2023-01-04T14:16:27;9.20;99.90
8947;DHT22;4508;48.790;9.028;2023-01-04T14:18:54;9.20;99.90
8947;DHT22;4508;48.790;9.028;2023-01-04T14:21:21;9.20;99.90
8947;DHT22;4508;48.790;9.028;2023-01-04T14:24:00;9.20;99.90
8947;DHT22;4508;48.790;9.028;2023-01-04T14:26:29;9.20;99.90
8947;DHT22;4508;48.790;9.028;2023-01-04T14:28:56;9.20;99.90
8947;DHT22;4508;48.790;9.028;2023-01-04T14:31:33;9.20;99.90
8947;DHT22;4508;48.790;9.028;2023-01-04T14:34:04;9.10;99.90
8947;DHT22;4508;48.790;9.028;2023-01-04T14:36:31;9.10;99.90
8947;DHT22;4508;48.790;9.028;2023-01-04T14:39:15;9.10;99.90
8947;DHT22;4508;48.790;9.028;2023-01-04T14:41:50;9.10;99.90
8947;DHT22;4508;48.790;9.028;2023-01-04T14:44:18;9.10;99.90
8947;DHT22;4508;48.790;9.028;2023-01-04T14:46:47;9.10;99.90
8947;DHT22;4508;48.790;9.028;2023-01-04T14:49:14;9.10;99.90
8947;DHT22;4508;48.790;9.028;2023-01-04T14:51:41;9.10;99.90
8947;DHT22;4508;48.790;9.028;2023-01-04T14:54:09;9.10;99.90
8947;DHT22;4508;48.790;9.028;2023-01-04T14:56:38;9.10;99.90
8947;DHT22;4508;48.790;9.028;2023-01-04T14:59:05;9.10;99.90
8947;DHT22;4508;48.790;9.028;2023-01-04T15:01:31;9.00;99.90
8947;DHT22;4508;48.790;9.028;2023-01-04T15:03:58;9.00;99.90
8947;DHT22;4508;48.790;9.028;2023-01-04T15:06:25;9.00;99.90
8947;DHT22;4508;48.790;9.028;2023-01-04T15:08:51;8.90;99.90
8947;DHT22;4508;48.790;9.028;2023-01-04T15:11:18;8.90;99.90
8947;DHT22;4508;48.790;9.028;2023-01-04T15:13:46;8.90;99.90
8947;DHT22;4508;48.790;9.028;2023-01-04T15:16:13;8.90;99.90
8947;DHT22;4508;48.790;9.028;2023-01-04T15:18:40;8.90;99.90
8947;DHT22;4508;48.790;9.028;2023-01-04T15:21:07;8.90;99.90
8947;DHT22;4508;48.790;9.028;2023-01-04T15:23:34;8.90;99.90
8947;DHT22;4508;48.790;9.028;2023-01-04T15:26:03;8.90;99.90
8947;DHT22;4508;48.790;9.028;2023-01-04T15:28:29;8.90;99.90
8947;DHT22;4508;48.790;9.028;2023-01-04T15:30:57;8.80;99.90
8947;DHT22;4508;48.790;9.028;2023-01-04T15:33:24;8.80;99.90
8947;DHT22;4508;48.790;9.028;2023-01-04T15:35:56;8.90;99.90
8947;DHT22;4508;48.790;9.028;2023-01-04T15:38:23;8.90;99.90
8947;DHT22;4508;48.790;9.028;2023-01-04T15:40:49;8.90;99.90
8947;DHT22;4508;48.790;9.028;2023-01-04T15:43:16;8.90;99.90
8947;DHT22;4508;48.790;9.028;2023-01-04T15:45:41;8.90;99.90
8947;DHT22;4508;48.790;9.028;2023-01-04T15:48:10;9.00;99.90
8947;DHT22;4508;48.790;9.028;2023-01-04T15:50:38;9.00;99.90
8947;DHT22;4508;48.790;9.028;2023-01-04T15:53:04;8.90;99.90
8947;DHT22;4508;48.790;9.028;2023-01-04T15:55:32;8.90;99.90
8947;DHT22;4508;48.790;9.028;2023-01-04T15:57:59;9.00;99.90
8947;DHT22;4508;48.790;9.028;2023-01-04T16:00:25;9.00;99.90
8947;DHT22;4508;48.790;9.028;2023-01-04T16:02:52;8.90;99.90
8947;DHT22;4508;48.790;9.028;2023-01-04T16:05:20;8.90;99.90
8947;DHT22;4508;48.790;9.028;2023-01-04T16:07:47;8.90;99.90
8947;DHT22;4508;48.790;9.028;2023-01-04T16:10:14;8.90;99.90
8947;DHT22;4508;48.790;9.028;2023-01-04T16:12:40;8.90;99.90
8947;DHT22;4508;48.790;9.028;2023-01-04T16:15:07;8.80;99.90
8947;DHT22;4508;48.790;9.028;2023-01-04T16:17:34;8.90;99.90
8947;DHT22;4508;48.790;9.028;2023-01-04T16:20:01;8.80;99.90
8947;DHT22;4508;48.790;9.028;2023-01-04T16:22:29;8.90;99.90
8947;DHT22;4508;48.790;9.028;2023-01-04T16:24:55;8.90;99.90
8947;DHT22;4508;48.790;9.028;2023-01-04T16:27:22;8.90;99.90
8947;DHT22;4508;48.790;9.028;2023-01-04T16:29:48;8.90;99.90
8947;DHT22;4508;48.790;9.028;2023-01-04T16:32:15;8.90;99.90
8947;DHT22;4508;48.790;9.028;2023-01-04T16:34:42;8.90;99.90
8947;DHT22;4508;48.790;9.028;2023-01-04T16:37:08;8.90;99.90
8947;DHT22;4508;48.790;9.028;2023-01-04T16:39:36;8.90;99.90
8947;DHT22;4508;48.790;9.028;2023-01-04T16:42:03;8.90;99.90
8947;DHT22;4508;48.790;9.028;2023-01-04T16:44:29;8.90;99.90